松山國際航空站 - 塔臺

METAR RCSS 170430Z 08015KT 040V110 9999 FEW018 BKN032 33/28 Q1001 WS R10 NOSIG RMK A2956(V)=

站台狀態:Online
最後更新:2019-07-17 12:30:02